Tiempo atmosférico en la estación meteorológica de Cáceres, Cáceres (405 m.)

Fecha
DESCASC
Temp. máxima en grados centígrados (hora)
DESCASC
Temp. mínima en grados centígrados (hora)
DESCASC
Temp. media en grados centígrados
DESCASC
Racha de viento máxima en m/sg (hora)
DESCASC
Velocidad máxima media en intervalos de 10 minutos(hora)
DESCASC
Precipitaciones diarias en mm
DESCASC
Precipitaciones de 00:00 a 06:00 en mm
DESCASC
Precipitaciones de 06:00 a 12:00 en mm
DESCASC
Precipitaciones de 12:00 a 18:00 en mm
DESCASC
Precipitaciones de 18:00 a 24:00 en mm
DESCASC
17-08-2017 38 (18:20) 21.2 (07:50) 29.6 7.78 (23:59) 5.56 (23:59) 0 0 0 0 0
16-08-2017 35.2 (17:50) 19.1 (08:00) 27.2 8.89 (00:20) 4.72 (00:20) 0 0 0 0 0
15-08-2017 35.6 (17:50) 20.7 (00:00) 28.1 10 (19:40) 5.83 (05:30) 0 0 0 0 0
14-08-2017 36.9 (17:30) 20.9 (08:00) 28.9 8.06 (13:40) 5 (23:59) 0 0 0 0 0
13-08-2017 37.3 (17:20) 18.7 (00:00) 28 7.5 (16:50) 3.89 (17:40) 0 0 0 0 0
12-08-2017 35.6 (16:20) 17.4 (00:00) 26.5 7.5 (15:50) 3.89 (17:10) 0 0 0 0 0
11-08-2017 32.9 (17:40) 14.8 (00:00) 23.9 7.22 (13:40) 3.89 (18:50) 0 0 0 0 0
10-08-2017 30.4 (18:30) 16 (00:00) 23.2 10.83 (11:20) 6.39 (11:20) 0 0 0 0 0
09-08-2017 29.7 (18:00) 16.7 (00:00) 23.2 11.94 (18:20) 6.67 (18:20) 0 0 0 0 0
08-08-2017 30.4 (17:40) 16.7 (00:00) 23.6 11.39 (00:30) 6.39 (00:30) 0 0 0 0 0
07-08-2017 36.1 (17:20) 21.2 (00:00) 28.6 11.94 (19:20) 6.67 (19:20) 0 0 0 0 0
06-08-2017 36.2 (17:20) 20.3 (00:00) 28.3 10 (15:30) 5.83 (01:40) 0 0 0 0 0
05-08-2017 38.7 (17:20) 24.4 (00:00) 31.6 9.17 (21:50) 5.28 (22:50) 0 0 0 0 0
04-08-2017 39.8 (18:50) 23.3 (00:00) 31.5 8.33 (19:00) 4.44 (23:10) 0 0 0 0 0
03-08-2017 36.8 (18:20) 19.7 (00:00) 28.3 8.33 (19:10) 4.17 (00:50) 0 0 0 0 0
02-08-2017 35.2 (18:20) 16.6 (00:00) 25.9 8.61 (00:50) 5.83 (00:50) 0 0 0 0 0
01-08-2017 31.4 (17:50) 16.1 (00:00) 23.8 8.89 (15:20) 5.56 (03:30) 0 0 0 0 0
31-07-2017 32.6 (17:30) 16.8 (00:00) 24.7 12.22 (19:10) 6.67 (20:20) 0 0 0 0 0
30-07-2017 36.3 (18:10) 20.8 (00:00) 28.5 9.44 (22:10) 5 (22:30) 0 0 0 0 0
29-07-2017 37.3 (19:00) 21.7 (00:00) 29.5 9.17 (16:30) 4.72 (00:40) 0 0 0 0 0
28-07-2017 37.8 (18:00) 21.4 (00:00) 29.6 9.44 (18:10) 5 (00:30) 0 0 0 0 0
27-07-2017 37.8 (16:20) 22.4 (00:00) 30.1 10 (23:20) 6.39 (23:20) 0 0 0 0 0
26-07-2017 36.8 (18:30) 19.1 (00:00) 27.9 7.5 (19:00) 3.89 (14:50) 0 0 0 0 0
25-07-2017 35 (18:20) 19.2 (00:00) 27.1 9.72 (17:00) 5 (16:50) 0 0 0 0 0
24-07-2017 34.6 (18:00) 20.8 (00:00) 27.7 12.22 (13:40) 5.56 (18:50) 0 0 0 0 0
23-07-2017 34.9 (18:20) 18.7 (00:00) 26.8 12.5 (17:30) 5 (20:40) 0 0 0 0 0
22-07-2017 32.6 (18:20) 17.4 (00:00) 25 8.33 (19:00) 4.17 (00:10) 0 0 0 0 0

Gráficas

Temp. máximas Temp. mínimas Temp. medias Precipitaciones Rachas de viento máximas Velocidades máximas media en intervalos de 10 minutos

Datos horarios

Fecha y hora oficial Temperatura (ºC) Velocidad del viento (km/h) Dirección del viento Racha (km/h) Dirección de racha Precipitación (mm) Presión (hPa) Tendencia (hPa) Humedad (%)
2017-08-20 23:00:00 30.4 4 Sur 8 Sudeste 0 970 1 32
2017-08-20 22:00:00 31.5 5 Sur 9 Sur 0 969.7 0.3 27
2017-08-20 21:00:00 35.3 6 Sudoeste 13 Sudeste 0 969.2 -0.8 21
2017-08-20 20:00:00 38.8 5 Sudeste 14 Nordeste 0 969 -1.4 15
2017-08-20 19:00:00 39.4 10 Nordeste 22 Este 0 969.4 -1.6 16
2017-08-20 18:00:00 39.8 12 Sudeste 26 Sudeste 0 970 -1.5 15
2017-08-20 17:00:00 39.5 10 Nordeste 21 Norte 0 970.4 -1.5 16
2017-08-20 16:00:00 38.8 6 Nordeste 26 Sur 0 971 -1.3 17
2017-08-20 15:00:00 38 8 Este 29 Sudeste 0 971.5 -1.3 20
2017-08-20 14:00:00 36.6 10 Este 26 Este 0 971.9 -0.9 23
2017-08-20 13:00:00 35.4 12 Este 25 Este 0 972.3 -0.3 25
2017-08-20 12:00:00 33.9 12 Este 26 Este 0 972.8 0.8 25
2017-08-20 11:00:00 31.7 15 Este 24 Este 0 972.8 1.3 27
2017-08-20 10:00:00 28.8 10 Este 19 Sudeste 0 972.6 1.6 35
2017-08-20 09:00:00 26.9 5 Este 12 Sudeste 0 972 1.3 37
2017-08-20 08:00:00 22.2 4 Sudeste 6 Sudeste 0 971.5 0.7 45
2017-08-20 07:00:00 23.2 3 Sudeste 8 Este 0 971 0.3 43
2017-08-20 06:00:00 22.8 2 Sudeste 6 Sudoeste 0 970.7 0 45
2017-08-20 05:00:00 23.2 5 Sudoeste 7 Sudoeste 0 970.8 -0.1 43
2017-08-20 04:00:00 24 5 Sudoeste 8 Sudoeste 0 970.7 -0.1 42
2017-08-20 03:00:00 24.9 5 Sudoeste 8 Sudoeste 0 970.7 0 39
2017-08-20 02:00:00 26.6 6 Sudoeste 11 Oeste 0 970.9 0.3 36
2017-08-20 01:00:00 27.8 8 Oeste 12 Oeste 0 970.8 0.7 32
2017-08-20 00:00:00 28.4 7 Oeste 10 Oeste 0 970.7 1.1 29
2017-08-19 23:00:00 29.4 6 Oeste 10 Oeste 0 970.6 1.1 28
2017-08-19 22:00:00 30.8 5 Oeste 9 Oeste 0 970.1 0.7 24
2017-08-19 21:00:00 34 5 Noroeste 17 Norte 0 969.6 0 18
2017-08-19 20:00:00 36.5 8 Noroeste 22 Noroeste 0 969.5 -0.3 17
2017-08-19 19:00:00 37.5 6 Noroeste 26 Norte 0 969.4 -0.8 17
2017-08-19 18:00:00 37.3 8 Norte 25 Norte 0 969.6 -0.9 18
2017-08-19 17:00:00 37.4 11 Noroeste 24 Norte 0 969.8 -1.1 19
2017-08-19 16:00:00 36.7 7 Norte 23 Nordeste 0 970.2 -0.9 19
2017-08-19 15:00:00 35.9 5 Sudeste 17 Norte 0 970.5 -1.1 19
2017-08-19 14:00:00 34.3 7 Norte 18 Norte 0 970.9 -0.3 23
2017-08-19 13:00:00 32.7 8 Norte 18 Norte 0 971.1 -0.2 28
2017-08-19 12:00:00 31.1 10 Norte 18 Norte 0 971.6 0.7 29
2017-08-19 11:00:00 28.4 7 Nordeste 17 Norte 0 971.2 0.5 33
2017-08-19 10:00:00 25.9 8 Noroeste 16 Norte 0 971.3 0.9 41
2017-08-19 09:00:00 24.1 4 Oeste 8 Noroeste 0 970.9 0.7 45
2017-08-19 08:00:00 22.2 5 Sudoeste 11 Noroeste 0 970.7 0.4 48
2017-08-19 07:00:00 23.6 5 Oeste 13 Noroeste 0 970.4 0 45
2017-08-19 06:00:00 23.8 6 Oeste 10 Oeste 0 970.2 -0.4 44
2017-08-19 05:00:00 25.1 6 Oeste 16 Oeste 0 970.3 -0.2 41
2017-08-19 04:00:00 25.7 7 Oeste 21 Noroeste 0 970.4 -0.1 40
2017-08-19 03:00:00 26.8 10 Noroeste 18 Noroeste 0 970.6 0.1 37
2017-08-19 02:00:00 27.6 9 Noroeste 21 Noroeste 0 970.5 0.2 35
2017-08-19 01:00:00 28.8 11 Noroeste 19 Noroeste 0 970.5 0.9 32
2017-08-19 00:00:00 29.3 10 Oeste 17 Oeste 0 970.5 1.2 27
2017-08-18 23:00:00 28.1 5 Oeste 9 Oeste 0 970.3 1 24
2017-08-18 22:00:00 29.9 6 Oeste 12 Norte 0 969.6 0.2 17
2017-08-18 21:00:00 34.1 6 Oeste 20 Noroeste 0 969.3 -0.2 12
2017-08-18 20:00:00 36.8 11 Oeste 26 Noroeste 0 969.3 -0.6 11
2017-08-18 19:00:00 37.1 13 Oeste 33 Noroeste 0 969.4 -1.2 15
2017-08-18 18:00:00 37.5 12 Noroeste 29 Noroeste 0 969.5 -1.5 16
2017-08-18 17:00:00 37 7 Noroeste 28 Noroeste 0 969.9 -1.4 17
2017-08-18 16:00:00 36.7 12 Noroeste 29 Noroeste 0 970.6 -0.8 18
2017-08-18 15:00:00 35.9 14 Noroeste 29 Norte 0 971 -0.8 19
2017-08-18 14:00:00 35.3 15 Noroeste 27 Noroeste 0 971.3 -0.3 20
2017-08-18 13:00:00 34.5 12 Norte 20 Noroeste 0 971.4 -0.1 22
2017-08-18 12:00:00 32.7 10 Noroeste 18 Noroeste 0 971.8 0 25
2017-08-18 11:00:00 30.5 2 Noroeste 7 Norte 0 971.6 0 29
2017-08-18 10:00:00 28.5 2 Este 12 Norte 0 971.5 0.6 32
2017-08-18 09:00:00 24.9 6 Oeste 15 Noroeste 0 971.8 1.4 40
2017-08-18 08:00:00 23.7 8 Noroeste 17 Noroeste 0 971.6 1.1 42
2017-08-18 07:00:00 23.7 5 Oeste 9 Oeste 0 970.9 0.1 43
2017-08-18 06:00:00 24.3 4 Oeste 10 Oeste 0 970.4 -0.8 40
2017-08-18 05:00:00 25.2 6 Oeste 10 Oeste 0 970.5 -0.9 39
2017-08-18 04:00:00 26 5 Oeste 13 Oeste 0 970.8 -0.5 38
2017-08-18 03:00:00 27.7 6 Oeste 17 Noroeste 0 971.2 0.2 34
2017-08-18 02:00:00 27.8 6 Oeste 12 Oeste 0 971.4 0.6 32
2017-08-18 01:00:00 29.3 8 Noroeste 28 Oeste 0 971.3 1 31
2017-08-18 00:00:00 29.7 20 Sudoeste 28 Oeste 0 971 0.8 33
2017-08-17 23:00:00 29.4 7 Sudoeste 10 Sudoeste 0 970.8 0.5 26
2017-08-17 22:00:00 31 7 Sudoeste 10 Oeste 0 970.3 0 23
2017-08-17 21:00:00 34.2 3 Sudoeste 11 Oeste 0 970.2 -0.4 21
2017-08-17 20:00:00 37 9 Noroeste 19 Noroeste 0 970.3 -0.8 15
2017-08-17 19:00:00 37.5 6 Norte 20 Noroeste 0 970.3 -1.3 14
2017-08-17 18:00:00 37.6 8 Noroeste 20 Norte 0 970.6 -1.6 15
2017-08-17 17:00:00 37.2 8 Norte 25 Noroeste 0 971.1 -1.6 15
2017-08-17 16:00:00 36.6 10 Norte 19 Norte 0 971.6 -1.6 15
2017-08-17 15:00:00 35.6 7 Norte 17 Norte 0 972.2 -1.2 17
2017-08-17 14:00:00 33.7 5 Noroeste 18 Norte 0 972.7 -0.8 19
2017-08-17 13:00:00 31.8 4 Noroeste 12 Este 0 973.2 -0.3 21
2017-08-17 12:00:00 29.9 5 Norte 15 Norte 0 973.4 0.2 24
2017-08-17 11:00:00 27 6 Noroeste 14 Noroeste 0 973.5 0.7 35
2017-08-17 10:00:00 24.8 8 Noroeste 12 Noroeste 0 973.5 1 44
2017-08-17 09:00:00 23.2 4 Oeste 8 Oeste 0 973.2 1 50
2017-08-17 08:00:00 21.3 6 Sudoeste 8 Oeste 0 972.8 0.5 55
2017-08-17 07:00:00 21.9 6 Oeste 14 Noroeste 0 972.5 0.2 51
2017-08-17 06:00:00 23.4 8 Oeste 13 Noroeste 0 972.2 -0.2 46
2017-08-17 05:00:00 23.4 5 Oeste 10 Noroeste 0 972.3 -0.3 45
2017-08-17 04:00:00 24.8 5 Oeste 16 Noroeste 0 972.3 -0.3 39
2017-08-17 03:00:00 25.7 9 Oeste 18 Noroeste 0 972.4 -0.5 34
2017-08-17 02:00:00 26.7 9 Oeste 18 Noroeste 0 972.6 -0.3 31
2017-08-17 01:00:00 27.4 9 Oeste 22 Oeste 0 972.6 0.1 29
2017-08-17 00:00:00 26.6 10 Oeste 17 Oeste 0 972.9 0.6 27
2017-08-16 23:00:00 27.7 6 Oeste 9 Oeste 0 972.9 0.8 25
2017-08-16 22:00:00 28.2 6 Sudoeste 8 Sudoeste 0 972.5 0.2 21
2017-08-16 21:00:00 32.6 4 Sudoeste 18 Noroeste 0 972.3 -0.2 17
2017-08-16 20:00:00 34.6 10 Norte 22 Norte 0 972.1 -0.7 13
2017-08-16 19:00:00 34.8 12 Norte 25 Noroeste 0 972.3 -1 13
2017-08-16 18:00:00 34.8 12 Noroeste 21 Noroeste 0 972.5 -1.2 13
2017-08-16 17:00:00 34.5 10 Norte 24 Oeste 0 972.8 -1.4 11
2017-08-16 16:00:00 33.8 12 Oeste 30 Noroeste 0 973.3 -1.3 11
2017-08-16 15:00:00 33 11 Noroeste 26 Noroeste 0 973.7 -1 14
2017-08-16 14:00:00 32 12 Norte 23 Norte 0 974.2 -0.6 17
2017-08-16 13:00:00 29.9 10 Noroeste 19 Noroeste 0 974.6 0 25
2017-08-16 12:00:00 27.8 7 Noroeste 20 Norte 0 974.7 0.3 31
2017-08-16 11:00:00 25.6 9 Noroeste 15 Noroeste 0 974.8 1 35
2017-08-16 10:00:00 22.6 8 Noroeste 17 Noroeste 0 974.6 1 39
2017-08-16 09:00:00 21.7 6 Oeste 13 Oeste 0 974.4 0.9 44
2017-08-16 08:00:00 19.1 5 Sudoeste 13 Oeste 0 973.8 0.5 51
2017-08-16 07:00:00 20.1 7 Oeste 17 Oeste 0 973.6 0.3 47
2017-08-16 06:00:00 21.1 9 Oeste 18 Oeste 0 973.5 0.1 44
2017-08-16 05:00:00 21.3 9 Oeste 18 Oeste 0 973.3 -0.3 46
2017-08-16 04:00:00 21.8 9 Oeste 22 Oeste 0 973.3 -0.3 46
2017-08-16 03:00:00 21.8 15 Oeste 24 Oeste 0 973.4 0.1 47
2017-08-16 02:00:00 23 13 Oeste 26 Sudoeste 0 973.6 0.5 44
2017-08-16 01:00:00 24.1 13 Oeste 32 Oeste 0 973.6 1.2 41
2017-08-16 00:00:00 25.5 14 Oeste 25 Sudoeste 0 973.3 1.6 36
2017-08-15 23:00:00 27.3 9 Oeste 23 Oeste 0 973.1 2 25
2017-08-15 22:00:00 29.4 14 Oeste 26 Oeste 0 972.4 1.6 17
2017-08-15 21:00:00 31.5 13 Oeste 33 Oeste 0 971.7 0.8 14
2017-08-15 20:00:00 33.2 20 Oeste 36 Oeste 0 971.1 -0.2 15
2017-08-15 19:00:00 35.1 17 Oeste 32 Noroeste 0 970.8 -0.7 16
2017-08-15 18:00:00 35.6 15 Oeste 29 Oeste 0 970.9 -1.1 16
2017-08-15 17:00:00 34.8 15 Oeste 29 Oeste 0 971.3 -1 17
2017-08-15 16:00:00 33.7 11 Oeste 27 Noroeste 0 971.5 -1 19
2017-08-15 15:00:00 32.9 14 Oeste 27 Noroeste 0 972 -0.4 16
2017-08-15 14:00:00 32.2 15 Noroeste 32 Oeste 0 972.3 0.1 20
2017-08-15 13:00:00 30 13 Oeste 24 Noroeste 0 972.5 0.3 26
2017-08-15 12:00:00 28.9 12 Oeste 17 Sudoeste 0 972.4 0.5 29
2017-08-15 11:00:00 27.1 5 Nordeste 9 Nordeste 0 972.2 1.3 35
2017-08-15 10:00:00 24.5 5 Noroeste 14 Norte 0 972.2 2 41
2017-08-15 09:00:00 22.2 4 Norte 9 Sudeste 0 971.9 1.9 48
2017-08-15 08:00:00 21 8 Sudeste 19 Sudoeste 0 970.9 -- 50
2017-08-15 07:00:00 23.4 14 Sur 21 Sur 0 970.2 0.6 42
2017-08-15 06:00:00 23.2 8 Sur 31 Oeste 0 970 0.5 41
2017-08-15 05:00:00 23.6 18 Sudoeste 26 Oeste 0 -- -- 43
2017-08-15 04:00:00 24.8 9 Sudoeste 18 Oeste 0 969.6 0.3 39
2017-08-15 03:00:00 25.7 6 Oeste 24 Sudoeste 0 969.5 0.2 35
2017-08-15 02:00:00 26.4 11 Oeste 24 Oeste 0 969.4 0.5 35
2017-08-15 01:00:00 27.2 14 Oeste 28 Sudoeste 0 969.3 1.3 32
2017-08-15 00:00:00 28.5 18 Oeste 27 Oeste 0 969.3 1.9 27
2017-08-14 23:00:00 30 15 Oeste 26 Oeste 0 968.9 1.7 23
2017-08-14 22:00:00 31.4 13 Oeste 24 Oeste 0 968 0.9 21
2017-08-14 21:00:00 33.4 8 Oeste 21 Sudoeste 0 967.4 0.1 22
2017-08-14 20:00:00 35.4 8 Oeste 21 Sudoeste 0 967.2 -0.4 20
2017-08-14 19:00:00 36.2 6 Sur 25 Oeste 0 967.1 -0.9 19
2017-08-14 18:00:00 36.6 13 Sur 26 Sur 0 967.3 -1.3 18
2017-08-14 17:00:00 36.4 4 Noroeste 24 Sur 0 967.6 -1.5 18
2017-08-14 16:00:00 36 9 Sudoeste 26 Sur 0 968 -1.4 17
2017-08-14 15:00:00 35.2 14 Sur 27 Sur 0 968.6 -1.1 17
2017-08-14 14:00:00 34.2 14 Sur 29 Sudoeste 0 969.1 -0.5 18
2017-08-14 13:00:00 32.1 11 Sur 27 Sur 0 969.4 0.1 22
2017-08-14 12:00:00 30.3 10 Sur 21 Sur 0 969.7 0.6 26
2017-08-14 11:00:00 27.9 9 Sur 17 Sur 0 969.6 1.3 30
2017-08-14 10:00:00 26.3 3 Este 11 Sudeste 0 969.3 1.6 32
2017-08-14 09:00:00 21.8 3 Oeste 9 Norte 0 969.1 1.5 36
2017-08-14 08:00:00 21.1 5 Nordeste 14 Sudoeste 0 968.3 0.7 35
2017-08-14 07:00:00 22.9 12 Sudoeste 14 Sudoeste 0 967.7 0 30
2017-08-14 06:00:00 22.2 7 Sudeste 11 Sudeste 0 967.6 -0.5 30
2017-08-14 05:00:00 22.9 3 Sudoeste 9 Sudoeste 0 967.6 -0.4 30
2017-08-14 04:00:00 23.7 6 Sudoeste 10 Sudoeste 0 967.7 -0.3 28
2017-08-14 03:00:00 23 2 Sur 8 Sudoeste 0 968.1 -0.1 29
2017-08-14 02:00:00 25.4 5 Sudoeste 10 Sudoeste 0 968 -0.2 25
2017-08-14 01:00:00 25.6 5 Sudoeste 8 Sudoeste 0 968 0.3 26
2017-08-14 00:00:00 26.1 6 Sudoeste 9 Sudoeste 0 968.2 1 25
2017-08-13 23:00:00 28 6 Sudoeste 13 Sudoeste 0 968.2 1 21
2017-08-13 22:00:00 29 9 Sudoeste 14 Sur 0 967.7 0.4 21
2017-08-13 21:00:00 33.4 6 Sudoeste 13 Sudoeste 0 967.2 -0.6 18
2017-08-13 20:00:00 36.2 5 Sudoeste 21 Sudoeste 0 967.2 -1 14
2017-08-13 19:00:00 37 6 Oeste 19 Noroeste 0 967.3 -1.4 13
2017-08-13 18:00:00 36.9 9 Oeste 23 Sudeste 0 967.8 -1.5 12
2017-08-13 17:00:00 36.8 9 Sudoeste 27 Oeste 0 968.2 -1.7 12
2017-08-13 16:00:00 36.7 7 Oeste 17 Este 0 968.7 -1.8 12
2017-08-13 15:00:00 35.7 6 Nordeste 19 Este 0 969.3 -1.5 13
2017-08-13 14:00:00 35.1 6 Este 17 Nordeste 0 969.9 -1 13
2017-08-13 13:00:00 33.7 9 Este 22 Nordeste 0 970.5 -0.6 14
2017-08-13 12:00:00 32.2 10 Este 21 Este 0 970.8 0.1 15
2017-08-13 11:00:00 30.2 12 Este 18 Este 0 970.9 0.5 18
2017-08-13 10:00:00 24.9 2 Oeste 7 Nordeste 0 971.1 1.2 24
2017-08-13 09:00:00 21.7 3 Oeste 5 Sudoeste 0 970.7 0.9 30
2017-08-13 08:00:00 18.8 3 Sudoeste 8 Sudeste 0 970.4 0.2 35
2017-08-13 07:00:00 19.2 3 Sudoeste 5 Sudoeste 0 969.9 -0.4 34
2017-08-13 06:00:00 20.4 5 Sudoeste 8 Sudeste 0 969.8 -0.7 30
2017-08-13 05:00:00 21.1 6 Sudeste 10 Sudeste 0 970.2 -0.7 28
2017-08-13 04:00:00 21.5 2 Sur 6 Oeste 0 970.3 -0.7 28
2017-08-13 03:00:00 22.9 5 Sur 8 Sur 0 970.5 -0.7 27
2017-08-13 02:00:00 23.8 5 Sudoeste 8 Sudoeste 0 970.9 -0.4 23
2017-08-13 01:00:00 24.6 6 Sudoeste 8 Sudoeste 0 971 0 22
2017-08-13 00:00:00 25.3 7 Sudoeste 9 Sudoeste 0 971.2 0.2 21
2017-08-12 23:00:00 25.8 6 Sudoeste 10 Sudoeste 0 971.3 0.3 21
2017-08-12 22:00:00 27.2 8 Sudoeste 9 Sudoeste 0 971 -0.2 20
2017-08-12 21:00:00 32.3 5 Noroeste 18 Norte 0 971 -0.6 16
2017-08-12 20:00:00 34.6 9 Norte 18 Nordeste 0 971 -0.8 12
2017-08-12 19:00:00 34.9 11 Nordeste 21 Nordeste 0 971.2 -1.3 12
2017-08-12 18:00:00 35.1 8 Noroeste 23 Nordeste 0 971.6 -1.5 12
2017-08-12 17:00:00 35 13 Norte 27 Sudeste 0 971.8 -1.9 13
2017-08-12 16:00:00 34.7 9 Norte 27 Nordeste 0 972.5 -1.6 13
2017-08-12 15:00:00 34.7 8 Este 21 Nordeste 0 973.1 -1.2 12
2017-08-12 14:00:00 33.3 7 Este 21 Nordeste 0 973.7 -0.9 14
2017-08-12 13:00:00 31.5 9 Nordeste 20 Este 0 974.1 -0.4 15
2017-08-12 12:00:00 29.9 9 Nordeste 19 Este 0 974.3 0.1 15
2017-08-12 11:00:00 27 7 Este 15 Este 0 974.6 0.9 20
2017-08-12 10:00:00 24.3 7 Nordeste 15 Este 0 974.5 1.2 24
2017-08-12 09:00:00 21.9 2 Nordeste 8 Sudeste 0 974.2 1.1 26
2017-08-12 08:00:00 17.5 3 Sudeste 8 Sudeste 0 973.7 0.6 33
2017-08-12 07:00:00 17.9 6 Sudeste 9 Este 0 973.3 0.2 32
2017-08-12 06:00:00 18.3 3 Sudeste 8 Sudeste 0 973.1 -0.1 32
2017-08-12 05:00:00 19.7 4 Sudoeste 9 Sudeste 0 973.1 -0.3 28
2017-08-12 04:00:00 19.6 6 Sudeste 8 Sudeste 0 973.1 -0.2 27
2017-08-12 03:00:00 20 5 Sudoeste 8 Sudoeste 0 973.2 0 26
2017-08-12 02:00:00 20.8 6 Sudoeste 10 Sudoeste 0 973.4 0.2 24
2017-08-12 01:00:00 21.6 5 Sudoeste 8 Sudoeste 0 973.3 0.6 23
2017-08-12 00:00:00 22.8 6 Sudoeste 8 Sudoeste 0 973.2 0.8 24
2017-08-11 23:00:00 23.8 5 Sudoeste 9 Sudoeste 0 973.2 0.7 24
2017-08-11 22:00:00 25.6 7 Sudoeste 8 Sudoeste 0 972.7 0.3 20
2017-08-11 21:00:00 31.3 6 Norte 14 Norte 0 972.4 -0.6 13
2017-08-11 20:00:00 32.3 9 Norte 23 Norte 0 972.5 -1 10
2017-08-11 19:00:00 32.5 9 Norte 25 Noroeste 0 972.4 -1.7 11
2017-08-11 18:00:00 32.6 8 Nordeste 23 Norte 0 973 -1.5 11
2017-08-11 17:00:00 32.2 10 Nordeste 20 Nordeste 0 973.5 -1.6 13
2017-08-11 16:00:00 31.5 12 Norte 22 Norte 0 974.1 -1.4 12
2017-08-11 15:00:00 30.8 9 Nordeste 24 Norte 0 974.5 -1.5 16
2017-08-11 14:00:00 29.8 9 Sudeste 26 Este 0 975.1 -0.8 19
2017-08-11 13:00:00 28.4 6 Este 20 Nordeste 0 975.5 -0.1 22
2017-08-11 12:00:00 26.4 10 Nordeste 17 Norte 0 976 0.4 27
2017-08-11 11:00:00 24.3 8 Este 16 Nordeste 0 975.9 0.6 30
2017-08-11 10:00:00 21.7 8 Este 15 Este 0 975.6 0.6 35
2017-08-11 09:00:00 20 6 Este 10 Este 0 975.6 0.7 37
2017-08-11 08:00:00 15.2 2 Sudeste 6 Sudoeste 0 975.3 0.3 44
2017-08-11 07:00:00 15.9 4 Sudoeste 8 Sudeste 0 975 -0.1 40
2017-08-11 06:00:00 18.3 7 Sudeste 12 Este 0 974.9 -0.2 30
2017-08-11 05:00:00 17.2 4 Sur 6 Sur 0 975 -0.3 34
2017-08-11 04:00:00 16.7 4 Sudoeste 7 Oeste 0 975.1 -0.1 34
2017-08-11 03:00:00 17.5 4 Sur 7 Sudoeste 0 975.1 0 34
2017-08-11 02:00:00 18 4 Sudoeste 6 Sudoeste 0 975.3 0.3 31
2017-08-11 01:00:00 19 6 Sudoeste 9 Sudoeste 0 975.2 0.9 32
2017-08-11 00:00:00 20.2 5 Sudoeste 8 Sudoeste 0 975.1 0.9 28
2017-08-10 23:00:00 21.7 6 Sudoeste 8 Sudoeste 0 975 0.8 25
2017-08-10 22:00:00 23.9 4 Sudeste 13 Nordeste 0 974.3 0 21
2017-08-10 21:00:00 28.4 9 Nordeste 20 Nordeste 0 974.2 -0.4 14
2017-08-10 20:00:00 29.5 13 Norte 28 Nordeste 0 974.2 -0.7 11
2017-08-10 19:00:00 30.1 14 Nordeste 26 Nordeste 0 974.3 -1.3 7
2017-08-10 18:00:00 30.2 11 Norte 25 Norte 0 974.6 -1.6 9
2017-08-10 17:00:00 29.7 15 Nordeste 26 Nordeste 0 974.9 -1.7 11
2017-08-10 16:00:00 28.8 14 Nordeste 32 Nordeste 0 975.6 -1.2 13
2017-08-10 15:00:00 27.4 13 Nordeste 33 Nordeste 0 976.2 -0.6 15
2017-08-10 14:00:00 26.2 19 Nordeste 34 Nordeste 0 976.6 -0.1 17
2017-08-10 13:00:00 24.9 16 Nordeste 37 Nordeste 0 976.8 0.2 19
2017-08-10 12:00:00 23.5 19 Nordeste 39 Este 0 976.8 0.5 21
2017-08-10 11:00:00 21.9 21 Nordeste 36 Nordeste 0 976.7 1 25
2017-08-10 10:00:00 19.5 17 Nordeste 29 Nordeste 0 976.6 1.5 32
2017-08-10 09:00:00 17.9 18 Nordeste 30 Nordeste 0 976.3 1.9 37
2017-08-10 08:00:00 16.2 10 Nordeste 15 Norte 0 975.7 1.4 45
2017-08-10 07:00:00 16.6 10 Nordeste 17 Nordeste 0 975.1 1.2 43
2017-08-10 06:00:00 16.9 3 Norte 12 Nordeste 0 974.4 0.8 44
2017-08-10 05:00:00 18.8 7 Nordeste 17 Nordeste 0 974.3 1.2 38
2017-08-10 04:00:00 19.3 8 Norte 15 Norte 0 973.9 1.6 36
2017-08-10 03:00:00 19.5 9 Norte 15 Nordeste 0 973.6 1.8 34
2017-08-10 02:00:00 19.9 7 Noroeste 14 Norte 0 973.1 1.5 33
2017-08-10 01:00:00 20.9 7 Norte 30 Norte 0 972.3 1.5 29
2017-08-10 00:00:00 22 16 Norte 30 Norte 0 971.8 1.6 25
2017-08-09 23:00:00 23.2 19 Norte 40 Noroeste 0 971.6 1.9 22
2017-08-09 22:00:00 24.4 18 Norte 37 Norte 0 970.8 1.4 23
2017-08-09 21:00:00 26.4 17 Norte 38 Norte 0 970.2 0.5 20
2017-08-09 20:00:00 27.8 20 Norte 37 Norte 0 969.7 -0.1 19
2017-08-09 19:00:00 29 18 Norte 43 Norte 0 969.4 -0.8 21
2017-08-09 18:00:00 29.6 17 Norte 31 Noroeste 0 969.7 -0.9 22
2017-08-09 17:00:00 29 17 Noroeste 33 Noroeste 0 969.8 -1.1 21
2017-08-09 16:00:00 28.5 14 Noroeste 31 Noroeste 0 970.2 -0.9 19
2017-08-09 15:00:00 27.3 14 Noroeste 32 Noroeste 0 970.6 -0.3 21
2017-08-09 14:00:00 26.4 16 Noroeste 35 Norte 0 970.9 -0.2 23
2017-08-09 13:00:00 25.6 14 Noroeste 30 Noroeste 0 971.1 0.3 27
2017-08-09 12:00:00 23.9 14 Norte 25 Norte 0 970.9 0.6 31
2017-08-09 11:00:00 22.2 12 Noroeste 26 Noroeste 0 971.1 0.5 35
2017-08-09 10:00:00 20 14 Noroeste 21 Noroeste 0 970.8 0.8 40
2017-08-09 09:00:00 18 10 Noroeste 17 Noroeste 0 970.3 0.3 48
2017-08-09 08:00:00 16.9 8 Noroeste 20 Noroeste 0 970.6 0.7 52
2017-08-09 07:00:00 17.2 12 Noroeste 18 Noroeste 0 970 -0.3 52
2017-08-09 06:00:00 17.4 5 Oeste 14 Oeste 0 970 -0.5 54
2017-08-09 05:00:00 18.5 9 Oeste 19 Noroeste 0 969.9 -0.6 51
2017-08-09 04:00:00 19.3 11 Noroeste 21 Noroeste 0 970.3 -0.1 49
2017-08-09 03:00:00 20.2 11 Noroeste 23 Noroeste 0 970.5 0.3 46
2017-08-09 02:00:00 21.2 12 Oeste 25 Noroeste 0 970.5 0.4 41
2017-08-09 01:00:00 22.6 16 Oeste 32 Oeste 0 970.4 0.5 36
2017-08-09 00:00:00 22.6 7 Oeste 14 Oeste 0 970.2 0.7 24
2017-08-08 23:00:00 24.4 7 Noroeste 19 Noroeste 0 970.1 0.7 23
2017-08-08 22:00:00 25.1 6 Oeste 15 Noroeste 0 969.9 0.2 22
2017-08-08 21:00:00 28.9 11 Noroeste 27 Noroeste 0 969.5 -0.4 18
2017-08-08 20:00:00 30.1 12 Norte 29 Noroeste 0 969.4 -0.9 16
2017-08-08 19:00:00 30 16 Noroeste 29 Noroeste 0 969.7 -0.9 16
2017-08-08 18:00:00 30.1 15 Noroeste 31 Norte 0 969.9 -1.1 16
2017-08-08 17:00:00 29.6 14 Noroeste 32 Noroeste 0 970.3 -1.1 17
2017-08-08 16:00:00 28.7 14 Noroeste 30 Noroeste 0 970.6 -1 15
2017-08-08 15:00:00 27.8 14 Noroeste 31 Noroeste 0 971 -0.5 17
2017-08-08 14:00:00 26.4 16 Noroeste 29 Noroeste 0 971.4 0.2 24
2017-08-08 13:00:00 25 13 Noroeste 32 Noroeste 0 971.6 0.6 29
2017-08-08 12:00:00 23.3 15 Noroeste 27 Noroeste 0 971.5 0.7 35
2017-08-08 11:00:00 21.6 16 Noroeste 29 Noroeste 0 971.2 0.8 41
2017-08-08 10:00:00 19.6 15 Noroeste 24 Noroeste 0 971 0.8 52
2017-08-08 09:00:00 17.6 14 Noroeste 22 Noroeste 0 970.8 0.8 58
2017-08-08 08:00:00 17 8 Oeste 22 Oeste 0 970.4 0.4 63
2017-08-08 07:00:00 17 12 Noroeste 23 Noroeste 0 970.2 0.2 66
2017-08-08 06:00:00 17.3 14 Noroeste 24 Oeste 0 970 0 66
2017-08-08 05:00:00 17.7 13 Noroeste 24 Oeste 0 970 -0.2 63
2017-08-08 04:00:00 17.9 11 Oeste 28 Oeste 0 970 0.1 59
2017-08-08 03:00:00 18.2 12 Oeste 27 Oeste 0 970 0.3 54
2017-08-08 02:00:00 18.7 16 Oeste 30 Oeste 0 970.2 0.7 51
2017-08-08 01:00:00 19.8 19 Oeste 41 Oeste 0 969.9 1.2 44
2017-08-08 00:00:00 22.2 18 Oeste 35 Oeste 0 969.7 1.6 35
2017-08-07 23:00:00 24.2 14 Oeste 37 Noroeste 0 969.5 2.1 36
2017-08-07 22:00:00 26.5 19 Oeste 38 Oeste 0 968.7 1.4 24
2017-08-07 21:00:00 28.7 21 Oeste 37 Oeste 0 968.1 0.9 19
2017-08-07 20:00:00 30.4 19 Oeste 43 Oeste 0 967.4 0 16
2017-08-07 19:00:00 32.8 23 Oeste 41 Oeste 0 967.3 -0.5 9
2017-08-07 18:00:00 35.1 20 Oeste 40 Noroeste 0 967.2 -1.3 7
2017-08-07 17:00:00 35.8 12 Sudoeste 29 Noroeste 0 967.4 -1.4 11
2017-08-07 16:00:00 34.6 16 Oeste 28 Oeste 0 967.8 -1.2 6
2017-08-07 15:00:00 33.4 16 Oeste 32 Noroeste 0 968.5 -1.1 10
2017-08-07 14:00:00 32.2 13 Oeste 28 Noroeste 0 968.8 -0.6 11
2017-08-07 13:00:00 30.2 13 Noroeste 24 Noroeste 0 969 -0.4 15
2017-08-07 12:00:00 27.8 13 Oeste 24 Oeste 0 969.6 0.1 21
2017-08-07 11:00:00 25.6 11 Noroeste 18 Oeste 0 969.4 0.1 28
2017-08-07 10:00:00 24.4 6 Noroeste 15 Noroeste 0 969.4 0.8 30
2017-08-07 09:00:00 22.5 4 Nordeste 29 Sudoeste 0 969.5 1 39
2017-08-07 08:00:00 21.3 20 Sudoeste 28 Sudoeste 0 969.3 0.7 40
2017-08-07 07:00:00 22.4 13 Sudoeste 24 Sudoeste 0 968.6 -0.2 30
2017-08-07 06:00:00 23.4 9 Sudoeste 19 Sur 0 968.5 -0.3 30
2017-08-07 05:00:00 23.6 5 Sudoeste 19 Sur 0 968.6 -0.6 31
2017-08-07 04:00:00 25.1 12 Sudoeste 22 Sudoeste 0 968.8 -0.4 29
2017-08-07 03:00:00 24.6 14 Oeste 25 Sudoeste 0 968.8 -0.2 40
2017-08-07 02:00:00 25.7 17 Sudoeste 31 Oeste 0 969.2 0.4 39
2017-08-07 01:00:00 26.7 19 Sudoeste 36 Sudoeste 0 969.2 1 38
2017-08-07 00:00:00 28.6 20 Sudoeste 30 Oeste 0 969 1.1 32
2017-08-06 23:00:00 29.9 15 Sudoeste 23 Oeste 0 968.8 1 20
2017-08-06 22:00:00 31.8 10 Sudoeste 22 Oeste 0 968.2 0.2 20
2017-08-06 21:00:00 34.4 7 Noroeste 19 Oeste 0 967.9 -0.3 20
2017-08-06 20:00:00 35.5 10 Noroeste 22 Noroeste 0 967.8 -0.8 19
2017-08-06 19:00:00 36 9 Oeste 24 Noroeste 0 968 -1 19
2017-08-06 18:00:00 36.1 12 Noroeste 26 Norte 0 968.2 -1.1 17
2017-08-06 17:00:00 35.8 6 Noroeste 28 Sudoeste 0 968.6 -1.2 18
2017-08-06 16:00:00 35.1 9 Noroeste 36 Oeste 0 969 -1.2 22
2017-08-06 15:00:00 33.4 11 Noroeste 23 Oeste 0 969.3 -1.1 26
2017-08-06 14:00:00 32.6 11 Noroeste 21 Noroeste 0 969.8 -0.5 29
2017-08-06 13:00:00 30.8 10 Noroeste 19 Norte 0 970.2 0.2 33
2017-08-06 12:00:00 28.7 4 Norte 13 Noroeste 0 970.4 0.5 36
2017-08-06 11:00:00 26.6 4 Norte 10 Norte 0 970.3 0.9 41
2017-08-06 10:00:00 23.7 6 Noroeste 15 Oeste 0 970 1.2 48
2017-08-06 09:00:00 22.1 10 Oeste 18 Sudoeste 0 969.9 1.3 51
2017-08-06 08:00:00 20.5 9 Oeste 21 Sudoeste 0 969.4 0.8 55
2017-08-06 07:00:00 20.4 13 Sudoeste 18 Sudoeste 0 968.8 0.1 54
2017-08-06 06:00:00 21.9 7 Oeste 22 Sudoeste 0 968.6 -0.2 51
2017-08-06 05:00:00 22.3 16 Sudoeste 23 Oeste 0 968.6 -0.5 48
2017-08-06 04:00:00 23 14 Oeste 24 Sudoeste 0 968.7 -0.6 46
2017-08-06 03:00:00 23.5 11 Oeste 29 Oeste 0 968.8 -0.4 46
2017-08-06 02:00:00 24.8 15 Oeste 32 Oeste 0 969.1 0.2 42
2017-08-06 01:00:00 26 19 Sudoeste 32 Sudoeste 0 969.3 1.3 40
2017-08-06 00:00:00 28 18 Oeste 32 Oeste 0 969.2 1.7 32
2017-08-05 23:00:00 30.2 16 Oeste 31 Sudoeste 0 968.9 1.6 24
2017-08-05 22:00:00 32.3 15 Oeste 33 Oeste 0 968 0.7 23
2017-08-05 21:00:00 35.4 14 Oeste 27 Noroeste 0 967.5 -0.1 18
2017-08-05 20:00:00 37.1 15 Oeste 31 Oeste 0 967.3 -0.7 17
2017-08-05 19:00:00 37.9 12 Noroeste 30 Oeste 0 967.3 -1.3 18
2017-08-05 18:00:00 38.1 14 Noroeste 29 Noroeste 0 967.6 -1.6 18
2017-08-05 17:00:00 38.2 14 Noroeste 30 Noroeste 0 968 -1.7 17
2017-08-05 16:00:00 38 11 Oeste 30 Noroeste 0 968.6 -1.5 18
2017-08-05 15:00:00 37.1 13 Oeste 31 Oeste 0 969.2 -1 17
2017-08-05 14:00:00 36.2 13 Oeste 27 Noroeste 0 969.7 -0.4 16
2017-08-05 13:00:00 35 11 Noroeste 22 Noroeste 0 970.1 0.1 21
2017-08-05 12:00:00 33.7 12 Noroeste 21 Noroeste 0 970.2 0.2 25
2017-08-05 11:00:00 31 10 Oeste 20 Noroeste 0 970.1 0.5 33
2017-08-05 10:00:00 28.4 12 Noroeste 17 Noroeste 0 970 0.5 37
2017-08-05 09:00:00 26.5 11 Noroeste 18 Noroeste 0 970 0.6 43
2017-08-05 08:00:00 25 6 Noroeste 14 Noroeste 0 969.6 0.1 49
2017-08-05 07:00:00 25.2 8 Noroeste 14 Noroeste 0 969.5 -0.2 48
2017-08-05 06:00:00 26.2 7 Oeste 14 Noroeste 0 969.4 -0.3 46
2017-08-05 05:00:00 26.5 6 Noroeste 13 Oeste 0 969.5 -0.3 46
2017-08-05 04:00:00 27 7 Noroeste 16 Noroeste 0 969.7 -0.3 47
2017-08-05 03:00:00 28.2 8 Noroeste 17 Noroeste 0 969.7 -0.4 41
2017-08-05 02:00:00 29.3 9 Noroeste 17 Oeste 0 969.8 0.2 35
2017-08-05 01:00:00 30.7 7 Noroeste 19 Noroeste 0 970 1.1 28
2017-08-05 00:00:00 32.4 10 Noroeste 28 Noroeste 0 970.1 1.6 23
2017-08-04 23:00:00 33.8 14 Oeste 26 Noroeste 0 969.6 1.2 20
2017-08-04 22:00:00 33.6 7 Oeste 17 Noroeste 0 968.9 0.3 21
2017-08-04 21:00:00 37.7 11 Noroeste 22 Norte 0 968.5 -0.3 16
2017-08-04 20:00:00 39 10 Oeste 24 Noroeste 0 968.4 -0.9 16
2017-08-04 19:00:00 39.4 14 Noroeste 30 Noroeste 0 968.6 -1.3 16
2017-08-04 18:00:00 39.4 13 Norte 24 Noroeste 0 968.8 -1.7 18
2017-08-04 17:00:00 39 10 Oeste 28 Noroeste 0 969.3 -1.8 19
2017-08-04 16:00:00 38.2 11 Norte 24 Noroeste 0 969.9 -1.8 22
2017-08-04 15:00:00 37.4 8 Noroeste 24 Norte 0 970.5 -1.6 24
2017-08-04 14:00:00 36.7 6 Nordeste 19 Nordeste 0 971.1 -1 25
2017-08-04 13:00:00 34.9 6 Norte 21 Norte 0 971.7 -0.2 29
2017-08-04 12:00:00 33 10 Norte 23 Noroeste 0 972.1 0.4 32
2017-08-04 11:00:00 30.7 12 Noroeste 22 Noroeste 0 972.1 0.6 39
2017-08-04 10:00:00 28.4 12 Noroeste 21 Norte 0 971.9 0.4 44
2017-08-04 09:00:00 26.2 9 Noroeste 17 Noroeste 0 971.7 0.3 50
2017-08-04 08:00:00 24.5 9 Noroeste 14 Noroeste 0 971.5 -0.1 53
2017-08-04 07:00:00 23.8 7 Oeste 14 Oeste 0 971.5 0 56
2017-08-04 06:00:00 24.3 10 Noroeste 18 Noroeste 0 971.4 -0.3 54
2017-08-04 05:00:00 24.7 5 Oeste 13 Oeste 0 971.6 -0.4 52
2017-08-04 04:00:00 25.4 8 Oeste 17 Noroeste 0 971.5 -0.6 50
2017-08-04 03:00:00 26.7 9 Noroeste 20 Oeste 0 971.7 -0.4 47
2017-08-04 02:00:00 27.9 12 Noroeste 22 Noroeste 0 972 0.2 43
2017-08-04 01:00:00 29.1 12 Noroeste 21 Noroeste 0 972.1 0.9 41
2017-08-04 00:00:00 30.3 10 Noroeste 23 Noroeste 0 972.1 1.4 37
2017-08-03 23:00:00 31.6 11 Noroeste 18 Noroeste 0 971.8 1.3 34
2017-08-03 22:00:00 32.8 10 Noroeste 18 Oeste 0 971.2 0.3 30
2017-08-03 21:00:00 35 13 Oeste 23 Oeste 0 970.7 -0.6 26
2017-08-03 20:00:00 36.1 14 Noroeste 30 Noroeste 0 970.5 -1 24
2017-08-03 19:00:00 36.3 10 Noroeste 24 Noroeste 0 970.9 -1.2 21
2017-08-03 18:00:00 36.3 12 Noroeste 29 Noroeste 0 971.3 -1.3 19
2017-08-03 17:00:00 36.1 9 Oeste 23 Norte 0 971.5 -1.7 15
2017-08-03 16:00:00 35.7 13 Noroeste 28 Noroeste 0 972.1 -1.6 15
2017-08-03 15:00:00 34.8 9 Oeste 21 Noroeste 0 972.6 -1.3 15
2017-08-03 14:00:00 33.6 10 Noroeste 25 Noroeste 0 973.2 -0.7 17
2017-08-03 13:00:00 32.2 7 Norte 16 Noroeste 0 973.7 -0.1 19
2017-08-03 12:00:00 30.2 9 Norte 19 Noroeste 0 973.9 0.6 21
2017-08-03 11:00:00 27.4 9 Noroeste 16 Noroeste 0 973.9 0.7 27
2017-08-03 10:00:00 25.4 9 Noroeste 14 Norte 0 973.8 0.7 32
2017-08-03 09:00:00 23.4 5 Noroeste 8 Noroeste 0 973.3 0.7 34
2017-08-03 08:00:00 20 6 Sudoeste 10 Oeste 0 973.2 0.6 42
2017-08-03 07:00:00 20.2 6 Sudoeste 9 Sudoeste 0 973.1 0.4 41
2017-08-03 06:00:00 21.5 7 Oeste 10 Noroeste 0 972.6 -0.1 38
2017-08-03 05:00:00 22.9 5 Oeste 15 Noroeste 0 972.6 -0.3 36
2017-08-03 04:00:00 23.8 9 Oeste 17 Oeste 0 972.7 -0.3 34
2017-08-03 03:00:00 24.3 9 Oeste 17 Oeste 0 972.7 -0.3 33
2017-08-03 02:00:00 24.8 10 Oeste 22 Oeste 0 972.9 0.3 32
2017-08-03 01:00:00 25.3 12 Oeste 26 Oeste 0 973 1.1 31
2017-08-03 00:00:00 26.6 11 Oeste 27 Noroeste 0 973 1.8 30
2017-08-02 23:00:00 28.8 18 Oeste 28 Sudoeste 0 972.6 1.9 19
2017-08-02 22:00:00 29.5 12 Sudoeste 17 Sudoeste 0 971.9 1.1 17
2017-08-02 21:00:00 33.1 10 Sudoeste 17 Sudoeste 0 971.2 0.4 15
2017-08-02 20:00:00 34.5 12 Sudoeste 22 Oeste 0 970.7 -0.4 14
2017-08-02 19:00:00 34.6 11 Oeste 22 Noroeste 0 970.8 -0.9 15
2017-08-02 18:00:00 34.8 6 Noroeste 28 Oeste 0 970.8 -1.4 15
2017-08-02 17:00:00 34.4 9 Sudoeste 22 Noroeste 0 971.1 -1.6 16
2017-08-02 16:00:00 33.7 9 Oeste 24 Oeste 0 971.7 -1.2 16
2017-08-02 15:00:00 32.8 9 Norte 21 Noroeste 0 972.2 -0.8 18
2017-08-02 14:00:00 31.8 7 Oeste 19 Noroeste 0 972.7 -0.5 20
2017-08-02 13:00:00 30.1 7 Noroeste 17 Noroeste 0 972.9 0.1 22
2017-08-02 12:00:00 27.4 10 Noroeste 15 Noroeste 0 973 0.6 28
2017-08-02 11:00:00 25 7 Norte 12 Nordeste 0 973.2 1.1 35
2017-08-02 10:00:00 22.6 5 Norte 9 Norte 0 972.8 0.9 41
2017-08-02 09:00:00 21.4 3 Norte 5 Norte 0 972.4 0.5 44
2017-08-02 08:00:00 17.5 4 Sudoeste 8 Sudoeste 0 972.1 0.2 54
2017-08-02 07:00:00 17.3 5 Sudoeste 12 Oeste 0 971.9 0.1 54
2017-08-02 06:00:00 18.4 9 Oeste 14 Oeste 0 971.9 -0.2 50
2017-08-02 05:00:00 19.5 5 Oeste 15 Oeste 0 971.9 -0.3 47
2017-08-02 04:00:00 20 8 Oeste 22 Oeste 0 971.8 -0.4 46
2017-08-02 03:00:00 20.3 11 Oeste 24 Oeste 0 972.1 0 45
2017-08-02 02:00:00 21.3 12 Oeste 25 Sudoeste 0 972.2 0.9 42
2017-08-02 01:00:00 22.1 19 Sudoeste 31 Sudoeste 0 972.2 1.6 39
2017-08-02 00:00:00 23.9 11 Oeste 29 Oeste 0 972.1 2.2 33
2017-08-01 23:00:00 25.9 13 Oeste 24 Oeste 0 971.3 1.9 28
2017-08-01 22:00:00 25.8 8 Oeste 10 Oeste 0 970.6 1.3 22
2017-08-01 21:00:00 29.1 8 Oeste 17 Sudoeste 0 969.9 0.5 19
2017-08-01 20:00:00 30.5 8 Sudoeste 17 Oeste 0 969.4 -0.1 19
2017-08-01 19:00:00 30.8 11 Noroeste 22 Noroeste 0 969.3 -0.3 19
2017-08-01 18:00:00 31.2 10 Noroeste 26 Noroeste 0 969.4 -0.2 18
2017-08-01 17:00:00 30.8 13 Sudoeste 29 Noroeste 0 969.5 -0.1 18
2017-08-01 16:00:00 30.1 12 Noroeste 32 Sudoeste 0 969.6 -0.3 19
2017-08-01 15:00:00 29.1 9 Oeste 23 Oeste 0 969.6 -0.3 23
2017-08-01 14:00:00 27.9 8 Oeste 25 Noroeste 0 969.6 0 27
2017-08-01 13:00:00 26.3 9 Noroeste 22 Oeste 0 969.9 0.1 32
2017-08-01 12:00:00 24.4 7 Sudoeste 16 Noroeste 0 969.9 1.3 36
2017-08-01 11:00:00 21.5 7 Noroeste 19 Noroeste 0 969.6 1.1 42
2017-08-01 10:00:00 19.5 7 Oeste 16 Oeste 0 969.8 2.2 47
2017-08-01 09:00:00 18.6 8 Oeste 15 Oeste 0 968.6 1.2 50
2017-08-01 08:00:00 16.3 8 Sudoeste 12 Sudoeste 0 968.5 1.4 57
2017-08-01 07:00:00 16.6 10 Sudoeste 25 Sudoeste 0 967.6 0.4 56
2017-08-01 06:00:00 17.2 18 Sudoeste 27 Sudoeste 0 967.4 0.2 54
2017-08-01 05:00:00 17.8 14 Oeste 30 Oeste 0 967.1 -0.1 54
2017-08-01 04:00:00 18.5 20 Sudoeste 29 Sudoeste 0 967.2 0 55
2017-08-01 03:00:00 19.2 17 Sudoeste 27 Oeste 0 967.2 0.2 55
2017-08-01 02:00:00 19.7 14 Sudoeste 21 Sudoeste 0 967.2 0.5 54
2017-08-01 01:00:00 20.3 9 Oeste 21 Oeste 0 967.2 1.2 51
2017-08-01 00:00:00 20.8 14 Oeste 31 Oeste 0 967 1.6 49
2017-07-31 23:00:00 20.9 12 Oeste 25 Noroeste 0 966.7 0.9 52
2017-07-31 22:00:00 21.9 13 Noroeste 32 Oeste 0 966 1.6 44
2017-07-31 21:00:00 22.7 13 Noroeste 39 Noroeste 0 965.4 0.7 40
2017-07-31 20:00:00 24.2 22 Oeste 44 Noroeste 0 965.8 1 36
2017-07-31 19:00:00 31.2 14 Noroeste 30 Oeste 0 964.4 -1 14
2017-07-31 18:00:00 31.7 17 Noroeste 32 Noroeste 0 964.7 -1 13
2017-07-31 17:00:00 31.6 18 Noroeste 27 Sudoeste 0 964.8 -1.4 18
2017-07-31 16:00:00 30.4 11 Noroeste 24 Sudoeste 0 965.4 -1.1 19
2017-07-31 15:00:00 30.2 8 Oeste 24 Noroeste 0 965.7 -0.8 17
2017-07-31 14:00:00 28.4 12 Oeste 26 Noroeste 0 966.2 -0.3 22
2017-07-31 13:00:00 27.4 10 Oeste 19 Sudoeste 0 966.5 -0.1 28
2017-07-31 12:00:00 25.6 10 Sudoeste 17 Sudoeste 0 966.5 0.3 33
2017-07-31 11:00:00 23.2 7 Oeste 14 Noroeste 0 966.5 0.7 43
2017-07-31 10:00:00 20.4 12 Oeste 21 Oeste 0 966.6 1 51
2017-07-31 09:00:00 18.5 4 Oeste 23 Oeste 0 966.2 1 55
2017-07-31 08:00:00 16.8 8 Sudoeste 20 Sudoeste 0 965.8 0.2 59
2017-07-31 07:00:00 16.9 10 Oeste 25 Oeste 0 965.6 -0.1 60
2017-07-31 06:00:00 18.4 11 Sudoeste 24 Sudoeste 0 965.2 -1.3 54
2017-07-31 05:00:00 19 12 Sudoeste 26 Oeste 0 965.6 -1.2 52
2017-07-31 04:00:00 19 14 Oeste 32 Sudoeste 0 965.7 -1 52
2017-07-31 03:00:00 20.3 12 Oeste 32 Oeste 0 966.5 -0.1 49
2017-07-31 02:00:00 22.1 7 Sudoeste 15 Noroeste 0 966.8 0.6 41
2017-07-31 01:00:00 24.1 7 Noroeste 23 Noroeste 0 966.7 1 32
2017-07-31 00:00:00 25.9 6 Noroeste 23 Oeste 0 966.6 1.2 28
2017-07-30 23:00:00 27.9 13 Oeste 34 Oeste 0 966.2 1 26
2017-07-30 22:00:00 30 16 Oeste 30 Oeste 0 965.7 0.3 21
2017-07-30 21:00:00 32.5 16 Oeste 31 Oeste 0 965.4 -0.6 18
2017-07-30 20:00:00 34.4 18 Oeste 32 Oeste 0 965.2 -1.5 17
2017-07-30 19:00:00 35.6 13 Oeste 33 Noroeste 0 965.4 -2 17
2017-07-30 18:00:00 35.9 10 Oeste 27 Sudoeste 0 966 -2 15
2017-07-30 17:00:00 35.3 13 Oeste 29 Norte 0 966.7 -1.8 16
2017-07-30 16:00:00 34.9 14 Oeste 28 Sudoeste 0 967.4 -1.4 15
2017-07-30 15:00:00 34.3 13 Oeste 26 Sudoeste 0 968 -1.1 15
2017-07-30 14:00:00 32.7 8 Oeste 19 Oeste 0 968.5 -0.7 21
2017-07-30 13:00:00 31.2 9 Oeste 18 Sudoeste 0 968.8 -0.4 25
2017-07-30 12:00:00 29.3 10 Noroeste 17 Noroeste 0 969.1 -0.1 30
2017-07-30 11:00:00 26.5 8 Noroeste 16 Oeste 0 969.2 0.1 38
2017-07-30 10:00:00 24.6 9 Noroeste 17 Noroeste 0 969.2 0.4 43
2017-07-30 09:00:00 23.4 7 Oeste 13 Oeste 0 969.2 0.2 47
2017-07-30 08:00:00 21 6 Oeste 13 Oeste 0 969.1 -0.1 55
2017-07-30 07:00:00 21.4 5 Sudoeste 22 Oeste 0 968.8 -0.5 54
2017-07-30 06:00:00 21.5 6 Oeste 23 Oeste 0 969 -0.7 57
2017-07-30 05:00:00 22.4 13 Sudoeste 19 Sudoeste 0 969.2 -1.2 55
2017-07-30 04:00:00 23.2 6 Sudoeste 15 Oeste 0 969.3 -1.1 49
2017-07-30 03:00:00 24.6 10 Oeste 22 Oeste 0 969.7 -0.8 47
2017-07-30 02:00:00 25.6 12 Oeste 23 Oeste 0 970.4 0.4 48
2017-07-30 01:00:00 27.6 13 Oeste 24 Oeste 0 970.4 1.1 37
2017-07-30 00:00:00 29 14 Oeste 32 Oeste 0 970.5 1.4 40
2017-07-29 23:00:00 31.6 13 Oeste 28 Oeste 0 970 1 25
2017-07-29 22:00:00 32.9 11 Oeste 23 Oeste 0 969.3 0.1 23
2017-07-29 21:00:00 35 12 Oeste 24 Noroeste 0 969.1 -0.6 21
2017-07-29 20:00:00 36.5 14 Oeste 26 Noroeste 0 969 -1.1 15
2017-07-29 19:00:00 37.3 11 Noroeste 27 Noroeste 0 969.2 -1.4 15
2017-07-29 18:00:00 37 11 Oeste 30 Oeste 0 969.7 -1.4 17
2017-07-29 17:00:00 36.6 12 Oeste 33 Noroeste 0 970.1 -1.4 20
2017-07-29 16:00:00 35.5 15 Oeste 28 Oeste 0 970.6 -1.2 21
2017-07-29 15:00:00 35 13 Oeste 27 Noroeste 0 971.1 -1 23
2017-07-29 14:00:00 34 13 Oeste 25 Noroeste 0 971.5 -0.6 27
2017-07-29 13:00:00 31.6 9 Norte 19 Noroeste 0 971.8 -0.4 31
2017-07-29 12:00:00 30.3 6 Noroeste 19 Noroeste 0 972.1 0.4 33
2017-07-29 11:00:00 27.9 11 Noroeste 19 Noroeste 0 972.1 0.9 40
2017-07-29 10:00:00 25.9 9 Noroeste 16 Noroeste 0 972.2 1.3 46
2017-07-29 09:00:00 23.7 6 Oeste 16 Oeste 0 971.7 0.9 51
2017-07-29 08:00:00 21.7 6 Oeste 10 Oeste 0 971.2 0.8 54
2017-07-29 07:00:00 22.4 8 Oeste 12 Oeste 0 970.9 0.5 53
2017-07-29 06:00:00 23.1 7 Oeste 15 Oeste 0 970.8 -0.1 50
2017-07-29 05:00:00 24.1 10 Oeste 16 Oeste 0 970.4 -0.4 47
2017-07-29 04:00:00 24.5 8 Oeste 19 Oeste 0 970.4 -0.6 43
2017-07-29 03:00:00 24.6 10 Oeste 21 Oeste 0 970.9 -0.2 42
2017-07-29 02:00:00 25.5 9 Oeste 26 Oeste 0 970.8 0.1 36
2017-07-29 01:00:00 26.8 15 Oeste 28 Oeste 0 971 1.2 30
2017-07-29 00:00:00 28.2 7 Oeste 19 Noroeste 0 971.1 1.8 29
2017-07-28 23:00:00 30.7 12 Oeste 29 Oeste 0 970.7 1.6 23
2017-07-28 22:00:00 32.8 14 Oeste 27 Oeste 0 969.8 0.8 24
2017-07-28 21:00:00 35.4 14 Oeste 25 Oeste 0 969.3 -0.2 16
2017-07-28 20:00:00 36.7 14 Oeste 30 Noroeste 0 969.1 -0.8 13
2017-07-28 19:00:00 37.5 12 Noroeste 34 Noroeste 0 969 -1.2 11
2017-07-28 18:00:00 37.4 13 Oeste 30 Oeste 0 969.5 -1.1 13
2017-07-28 17:00:00 37.2 15 Oeste 28 Sudoeste 0 969.9 -1.2 12
2017-07-28 16:00:00 36.5 13 Oeste 27 Oeste 0 970.2 -1.2 12
2017-07-28 15:00:00 35.8 11 Noroeste 23 Noroeste 0 970.6 -0.8 16
2017-07-28 14:00:00 34.5 9 Noroeste 22 Norte 0 971.1 -0.2 19
2017-07-28 13:00:00 32.9 9 Noroeste 20 Noroeste 0 971.4 0 22
2017-07-28 12:00:00 31.1 11 Noroeste 22 Noroeste 0 971.4 0.5 25
2017-07-28 11:00:00 28.9 12 Noroeste 23 Norte 0 971.3 0.5 31
2017-07-28 10:00:00 26 12 Noroeste 17 Norte 0 971.4 0.9 41
2017-07-28 09:00:00 24.6 5 Noroeste 10 Noroeste 0 970.9 0.6 42
2017-07-28 08:00:00 21.8 5 Oeste 11 Oeste 0 970.8 0.7 49
2017-07-28 07:00:00 21.7 5 Sudoeste 10 Noroeste 0 970.5 0.6 49
2017-07-28 06:00:00 23 9 Oeste 20 Noroeste 0 970.3 0.5 43
2017-07-28 05:00:00 24.2 9 Oeste 18 Oeste 0 970.1 0.5 39
2017-07-28 04:00:00 24.9 7 Noroeste 22 Oeste 0 969.9 0.4 35
2017-07-28 03:00:00 26.1 12 Oeste 22 Noroeste 0 969.8 0.6 37
2017-07-28 02:00:00 27.1 12 Oeste 24 Oeste 0 969.6 0.9 35
2017-07-28 01:00:00 27.8 14 Oeste 28 Oeste 0 969.5 1.4 35
2017-07-28 00:00:00 28.6 20 Oeste 36 Sudoeste 0 969.2 1.7 34
2017-07-27 23:00:00 30 21 Sudoeste 35 Sudoeste 0 968.7 1.5 29
2017-07-27 22:00:00 32.3 18 Oeste 34 Oeste 0 968.1 0.8 23
2017-07-27 21:00:00 35.4 16 Oeste 26 Sudoeste 0 967.5 -0.3 15
2017-07-27 20:00:00 36.6 13 Sudoeste 24 Sur 0 967.2 -1 16
2017-07-27 19:00:00 37.2 11 Sudoeste 28 Sudoeste 0 967.3 -1.1 15
2017-07-27 18:00:00 37.3 10 Sudoeste 30 Sudoeste 0 967.8 -1.1 14
2017-07-27 17:00:00 37.3 16 Oeste 32 Oeste 0 968.2 -1.2 15
2017-07-27 16:00:00 37.1 5 Noroeste 27 Oeste 0 968.4 -1.2 17
2017-07-27 15:00:00 36.2 13 Noroeste 26 Oeste 0 968.9 -0.9 18
2017-07-27 14:00:00 35.2 13 Noroeste 25 Noroeste 0 969.4 -0.4 19
2017-07-27 13:00:00 33.7 8 Oeste 17 Noroeste 0 969.6 -0.2 20
2017-07-27 12:00:00 32 11 Norte 17 Norte 0 969.8 0.2 24
2017-07-27 11:00:00 29.8 4 Norte 8 Norte 0 969.8 0.5 26
2017-07-27 10:00:00 27.9 4 Norte 7 Nordeste 0 969.8 0.8 31
2017-07-27 09:00:00 24.8 3 Oeste 6 Oeste 0 969.6 0.8 38
2017-07-27 08:00:00 23 5 Sudoeste 8 Sudoeste 0 969.3 0.6 41
2017-07-27 07:00:00 22.9 5 Sudoeste 8 Sudoeste 0 969 0.1 41
2017-07-27 06:00:00 23.7 5 Sudoeste 7 Sudoeste 0 968.8 -0.2 41
2017-07-27 05:00:00 24.1 5 Oeste 9 Oeste 0 968.7 -0.3 39
2017-07-27 04:00:00 24.8 5 Oeste 12 Oeste 0 968.9 -0.3 38
2017-07-27 03:00:00 25.6 7 Oeste 12 Oeste 0 969 0.2 35
2017-07-27 02:00:00 27.1 8 Oeste 14 Noroeste 0 969 0.5 31
2017-07-27 01:00:00 29.3 10 Oeste 22 Noroeste 0 969.2 1.1 31
2017-07-27 00:00:00 27.9 10 Sudoeste 20 Sudoeste 0 968.8 1 28
2017-07-26 23:00:00 28.4 7 Sudoeste 9 Sudoeste 0 968.5 0.8 27
2017-07-26 22:00:00 30 5 Sudoeste 9 Sudoeste 0 968.1 0.3 25
2017-07-26 21:00:00 35.7 3 Noroeste 12 Noroeste 0 967.8 -0.3 19
2017-07-26 20:00:00 36.2 9 Noroeste 22 Norte 0 967.7 -0.9 16
2017-07-26 19:00:00 36.5 10 Noroeste 27 Noroeste 0 967.8 -1.1 17
2017-07-26 18:00:00 36.5 8 Noroeste 19 Noroeste 0 968.1 -1.3 15
2017-07-26 17:00:00 36.2 10 Norte 20 Noroeste 0 968.6 -1.2 16
2017-07-26 16:00:00 35.3 11 Noroeste 25 Norte 0 968.9 -1.2 17
2017-07-26 15:00:00 34.8 10 Noroeste 24 Norte 0 969.4 -0.9 18
2017-07-26 14:00:00 34.3 6 Nordeste 24 Nordeste 0 969.8 -0.8 19
2017-07-26 13:00:00 33.3 9 Nordeste 24 Norte 0 970.1 -0.4 20
2017-07-26 12:00:00 31.1 9 Nordeste 18 Nordeste 0 970.3 0 23
2017-07-26 11:00:00 29.4 9 Nordeste 16 Nordeste 0 970.6 0.5 25
2017-07-26 10:00:00 26.4 7 Este 13 Nordeste 0 970.5 0.8 28
2017-07-26 09:00:00 24.2 5 Este 12 Este 0 970.3 1 31
2017-07-26 08:00:00 20.1 4 Sudoeste 6 Sudoeste 0 970.1 0.9 41
2017-07-26 07:00:00 19.7 3 Sudoeste 8 Sudoeste 0 969.7 0.6 40
2017-07-26 06:00:00 20.6 5 Sur 7 Sudoeste 0 969.3 0.4 39
2017-07-26 05:00:00 20.9 4 Sudoeste 10 Sudoeste 0 969.2 0.3 37
2017-07-26 04:00:00 21.3 6 Sudoeste 8 Sudoeste 0 969.1 0.2 37
2017-07-26 03:00:00 23 5 Oeste 10 Oeste 0 968.9 -0.1 33
2017-07-26 02:00:00 23.9 8 Sudoeste 11 Oeste 0 968.9 0.2 31
2017-07-26 01:00:00 25.8 5 Noroeste 14 Noroeste 0 968.9 1 27
2017-07-26 00:00:00 26 6 Noroeste 14 Noroeste 0 969 1.5 26
2017-07-25 23:00:00 28 3 Oeste 14 Norte 0 968.7 1.4 23
2017-07-25 22:00:00 30.7 10 Norte 27 Norte 0 967.9 0.3 20
2017-07-25 21:00:00 33.3 15 Norte 31 Noroeste 0 967.5 -0.4 18
2017-07-25 20:00:00 34.3 17 Noroeste 31 Noroeste 0 967.3 -1.1 17
2017-07-25 19:00:00 34.7 15 Norte 28 Noroeste 0 967.6 -1.4 17
2017-07-25 18:00:00 34.9 16 Norte 30 Noroeste 0 967.9 -1.7 15
2017-07-25 17:00:00 34.7 14 Norte 35 Norte 0 968.4 -1.8 12
2017-07-25 16:00:00 33.5 16 Noroeste 30 Noroeste 0 969 -1.7 17
2017-07-25 15:00:00 32.7 11 Norte 25 Nordeste 0 969.6 -1.2 23
2017-07-25 14:00:00 31.9 13 Norte 30 Norte 0 970.2 -1 25
2017-07-25 13:00:00 31.1 12 Norte 26 Norte 0 970.7 -0.7 26
2017-07-25 12:00:00 30.6 6 Nordeste 17 Nordeste 0 970.8 -0.4 26
2017-07-25 11:00:00 28 9 Norte 17 Nordeste 0 971.2 0.3 32
2017-07-25 10:00:00 26.3 9 Nordeste 15 Nordeste 0 971.4 0.8 35
2017-07-25 09:00:00 23.7 8 Este 13 Este 0 971.2 0.8 39
2017-07-25 08:00:00 22 8 Este 12 Este 0 970.9 0.5 40
2017-07-25 07:00:00 19.2 4 Sudoeste 7 Oeste 0 970.6 -0.1 48
2017-07-25 06:00:00 20.4 4 Sudoeste 8 Oeste 0 970.4 -0.6 45
2017-07-25 05:00:00 21.4 5 Oeste 11 Oeste 0 970.4 -0.9 42
2017-07-25 04:00:00 22.7 6 Oeste 14 Oeste 0 970.7 -0.8 39
2017-07-25 03:00:00 24.1 6 Oeste 16 Noroeste 0 971 -0.5 35
2017-07-25 02:00:00 24.5 6 Oeste 16 Noroeste 0 971.3 0 31
2017-07-25 01:00:00 26.1 8 Oeste 15 Noroeste 0 971.5 0.6 26
2017-07-25 00:00:00 27 8 Oeste 17 Norte 0 971.5 0.7 22
2017-07-24 23:00:00 28.6 9 Noroeste 22 Noroeste 0 971.3 0.5 21
2017-07-24 22:00:00 30.3 13 Noroeste 29 Noroeste 0 970.9 -0.1 22
2017-07-24 21:00:00 32.8 18 Noroeste 30 Norte 0 970.8 -0.5 21
2017-07-24 20:00:00 33.9 17 Noroeste 34 Noroeste 0 970.8 -0.9 19
2017-07-24 19:00:00 34.3 18 Noroeste 37 Noroeste 0 971 -1.2 18
2017-07-24 18:00:00 34.6 15 Noroeste 32 Norte 0 971.3 -1.5 20
2017-07-24 17:00:00 34.1 13 Noroeste 29 Noroeste 0 971.7 -1.4 23
2017-07-24 16:00:00 33.5 13 Noroeste 31 Noroeste 0 972.2 -1.4 23
2017-07-24 15:00:00 32.8 15 Norte 36 Oeste 0 972.8 -1 26
2017-07-24 14:00:00 31.2 16 Norte 44 Norte 0 973.1 -0.8 28
2017-07-24 13:00:00 29.2 16 Noroeste 32 Norte 0 973.6 -0.4 35
2017-07-24 12:00:00 27.3 15 Noroeste 30 Noroeste 0 973.8 0 40
2017-07-24 11:00:00 25.5 19 Norte 33 Norte 0 973.9 0.2 45
2017-07-24 10:00:00 24.1 18 Noroeste 35 Noroeste 0 974 0.4 48
2017-07-24 09:00:00 22.8 16 Noroeste 27 Noroeste 0 973.8 0.2 52
2017-07-24 08:00:00 21 12 Noroeste 23 Noroeste 0 973.7 0 58
2017-07-24 07:00:00 21.4 14 Noroeste 24 Noroeste 0 973.6 0 55
2017-07-24 06:00:00 22.1 13 Noroeste 25 Noroeste 0 973.6 -0.2 55
2017-07-24 05:00:00 22.8 13 Noroeste 23 Noroeste 0 973.7 -0.4 53
2017-07-24 04:00:00 23.7 9 Noroeste 21 Noroeste 0 973.6 -0.4 51
2017-07-24 03:00:00 24.8 14 Noroeste 23 Noroeste 0 973.8 0.5 47
2017-07-24 02:00:00 25.8 13 Noroeste 21 Noroeste 0 974.1 1.3 43
2017-07-24 01:00:00 26.7 13 Noroeste 23 Noroeste 0 974 2 40
2017-07-24 00:00:00 27.7 11 Noroeste 24 Noroeste 0 973.3 1.8 35
2017-07-23 23:00:00 28.4 10 Noroeste 22 Norte 0 972.8 1.5 25
2017-07-23 22:00:00 30.8 8 Noroeste 25 Norte 0 972 0.5 20
2017-07-23 21:00:00 33.2 14 Norte 32 Noroeste 0 971.5 -0.2 18
2017-07-23 20:00:00 34.2 14 Noroeste 27 Noroeste 0 971.3 -0.8 18
2017-07-23 19:00:00 34.5 14 Noroeste 28 Noroeste 0 971.5 -1 17
2017-07-23 18:00:00 34.5 12 Oeste 45 Oeste 0 971.7 -1.2 16
2017-07-23 17:00:00 34.2 10 Oeste 30 Oeste 0 972.1 -1.2 17
2017-07-23 16:00:00 33.5 13 Noroeste 29 Noroeste 0 972.5 -0.9 20
2017-07-23 15:00:00 33.1 12 Noroeste 27 Oeste 0 972.9 -0.4 20
2017-07-23 14:00:00 31.9 9 Noroeste 22 Nordeste 0 973.3 0.2 23
2017-07-23 13:00:00 30.7 8 Norte 22 Norte 0 973.4 0.4 25
2017-07-23 12:00:00 29.2 6 Norte 13 Noroeste 0 973.3 0.9 29
2017-07-23 11:00:00 26.2 4 Noroeste 20 Noroeste 0 973.1 1.1 36
2017-07-23 10:00:00 23.9 10 Noroeste 18 Norte 0 973 1.3 42
2017-07-23 09:00:00 22.4 4 Noroeste 12 Noroeste 0 972.4 0.9 47
2017-07-23 08:00:00 19.4 5 Oeste 10 Oeste 0 972 0.9 56
2017-07-23 07:00:00 19 5 Oeste 10 Oeste 0 971.7 0.5 57
2017-07-23 06:00:00 19.8 6 Oeste 9 Oeste 0 971.5 0.1 55
2017-07-23 05:00:00 20.5 5 Oeste 11 Noroeste 0 971.1 -0.3 54
2017-07-23 04:00:00 21.7 5 Noroeste 18 Noroeste 0 971.2 0.5 51
2017-07-23 03:00:00 22.6 9 Noroeste 22 Oeste 0 971.4 1 48
2017-07-23 02:00:00 23.6 14 Oeste 24 Oeste 0 971.4 1.5 47
2017-07-23 01:00:00 23.8 12 Oeste 30 Sudoeste 0 970.7 1.4 45
2017-07-23 00:00:00 24.9 12 Oeste 23 Oeste 0 970.4 1.4 39
2017-07-22 23:00:00 24.7 6 Sudoeste 9 Sudoeste 0 969.9 1.2 22
2017-07-22 22:00:00 26.8 8 Sudoeste 10 Noroeste 0 969.3 0.6 19
2017-07-22 21:00:00 31.2 9 Noroeste 17 Norte 0 969 0.2 13
2017-07-22 20:00:00 31.9 12 Noroeste 23 Oeste 0 968.7 -0.5 14
2017-07-22 19:00:00 32.2 13 Noroeste 30 Noroeste 0 968.7 -0.8 17
2017-07-22 18:00:00 31.9 13 Noroeste 23 Oeste 0 968.8 -1 18
2017-07-22 17:00:00 32.1 8 Oeste 23 Noroeste 0 969.2 -0.7 18
2017-07-22 16:00:00 30.9 13 Oeste 23 Oeste 0 969.5 -0.5 21
2017-07-22 15:00:00 30 12 Sudoeste 24 Sudoeste 0 969.8 -0.4 23
2017-07-22 14:00:00 29.5 10 Noroeste 26 Noroeste 0 969.9 -0.2 25
2017-07-22 13:00:00 27.6 8 Oeste 18 Noroeste 0 970 0.2 30
2017-07-22 12:00:00 26.3 7 Norte 18 Noroeste 0 970.2 0.8 32
2017-07-22 11:00:00 24 8 Norte 16 Noroeste 0 970.1 1.1 39
2017-07-22 10:00:00 21.4 8 Noroeste 14 Noroeste 0 969.8 1.2 47
2017-07-22 09:00:00 20 7 Oeste 13 Oeste 0 969.4 1.1 51
2017-07-22 08:00:00 18.1 6 Oeste 11 Sudoeste 0 969 0.9 58
2017-07-22 07:00:00 17.6 5 Oeste 11 Oeste 0 968.6 0.5 59
2017-07-22 06:00:00 18.6 6 Oeste 14 Oeste 0 968.3 0.2 56
2017-07-22 05:00:00 19.3 6 Oeste 15 Noroeste 0 968.1 -0.1 53
2017-07-22 04:00:00 19.6 9 Oeste 21 Oeste 0 968.1 -0.1 53
2017-07-22 03:00:00 20.3 9 Oeste 22 Oeste 0 968.1 0.2 50
2017-07-22 02:00:00 21.2 9 Oeste 24 Oeste 0 968.2 0.8 47
2017-07-22 01:00:00 22.3 12 Oeste 26 Oeste 0 968.2 1.6 43
2017-07-22 00:00:00 23.6 18 Oeste 27 Oeste 0 967.9 1.8 38